Mkl-0415-k Sofia — UUBA4 — position and weather

sailwx.info

Track history (hours):
 
Tides and Currents Weather Stations Pressure Air Temp Water Temp Dewpoint Dewpoint Depression Visibility Wind Speed Wind Dir Waves Ship Positions

Mkl-0415-k Sofia

Last reported at 2017-Oct-21 03:33 UTC. Time now 2017-Dec-12 06:43 UTC.
Position N 44°02' E 029°07'.
Warning: this ship's position is 52 days out of date.

Length 10 m.

Type: Pleasure craft. MMSI: 272159200.

Date/timePositionNaut miles runAvg speedWind from/ knotsBaromVisibWave heightAir tempDewpointWater temp
2017-Oct-21 03:33N 44°02' E 029°07'1 5.2
2017-Oct-21 03:27N 44°02' E 029°07'3 5.6
2017-Oct-21 02:58N 43°60' E 029°05'3 5.4
2017-Oct-21 02:30N 43°57' E 029°03'15 5.5
2017-Oct-20 23:50N 43°45' E 028°51'2 5.0
2017-Oct-20 23:30N 43°44' E 028°50'3 5.6
2017-Oct-20 22:57N 43°41' E 028°48'3 5.9
2017-Oct-20 22:29N 43°39' E 028°46'3 5.9
2017-Oct-20 22:00N 43°36' E 028°44'  
Track history (hours):
 
Tides and Currents Weather Stations Pressure Air Temp Water Temp Dewpoint Dewpoint Depression Visibility Wind Speed Wind Dir Waves Ship Positions

Mkl-0415-k Sofia

Last reported at 2017-Oct-21 03:33 UTC. Time now 2017-Dec-12 06:43 UTC.
Position N 44°02' E 029°07'.
Warning: this ship's position is 52 days out of date.

Length 10 m.

Type: Pleasure craft. MMSI: 272159200.

Date/timePositionNaut miles runAvg speedWind from/ knotsBaromVisibWave heightAir tempDewpointWater temp
2017-Oct-21 03:33N 44°02' E 029°07'1 5.2
2017-Oct-21 03:27N 44°02' E 029°07'3 5.6
2017-Oct-21 02:58N 43°60' E 029°05'3 5.4
2017-Oct-21 02:30N 43°57' E 029°03'15 5.5
2017-Oct-20 23:50N 43°45' E 028°51'2 5.0
2017-Oct-20 23:30N 43°44' E 028°50'3 5.6
2017-Oct-20 22:57N 43°41' E 028°48'3 5.9
2017-Oct-20 22:29N 43°39' E 028°46'3 5.9
2017-Oct-20 22:00N 43°36' E 028°44'  

Dump ship's entire track history